createdAt,value
2019-03-12T00:00:31.584Z,0.80
2019-03-12T00:01:31.605Z,0.80
2019-03-12T00:02:31.574Z,0.80
2019-03-12T00:03:31.562Z,0.80
2019-03-12T00:04:31.546Z,0.70
2019-03-12T00:05:31.568Z,0.70
2019-03-12T00:06:31.541Z,0.80
2019-03-12T00:07:31.514Z,0.70
2019-03-12T00:08:31.524Z,0.80
2019-03-12T00:09:31.495Z,0.90
2019-03-12T00:10:31.477Z,0.70
2019-03-12T00:11:31.513Z,0.70
2019-03-12T00:12:31.459Z,0.60
2019-03-12T00:13:31.458Z,0.90
2019-03-12T00:14:31.618Z,0.60
2019-03-12T00:15:31.434Z,0.60
2019-03-12T00:16:31.442Z,0.70
2019-03-12T00:17:31.455Z,0.90
2019-03-12T00:18:31.402Z,0.70
2019-03-12T00:19:31.378Z,0.90
2019-03-12T00:20:31.371Z,0.80
2019-03-12T00:21:31.386Z,0.80
2019-03-12T00:22:31.352Z,0.70
2019-03-12T00:23:31.344Z,0.80
2019-03-12T00:24:31.340Z,0.80
2019-03-12T00:25:31.343Z,1.10
2019-03-12T00:26:31.326Z,0.70
2019-03-12T00:27:31.311Z,0.60
2019-03-12T00:28:31.292Z,0.70
2019-03-12T00:29:31.271Z,0.80
2019-03-12T00:30:31.264Z,0.80
2019-03-12T00:31:31.287Z,0.80
2019-03-12T00:32:31.256Z,0.80
2019-03-12T00:33:31.242Z,0.80
2019-03-12T00:34:31.277Z,0.90
2019-03-12T00:35:31.217Z,0.80
2019-03-12T00:36:31.238Z,0.80
2019-03-12T00:37:31.197Z,0.80
2019-03-12T00:38:31.213Z,0.90
2019-03-12T00:39:31.175Z,0.80
2019-03-12T00:40:31.167Z,0.80
2019-03-12T00:41:31.241Z,0.80
2019-03-12T00:42:31.213Z,0.70
2019-03-12T00:43:31.121Z,0.60
2019-03-12T00:44:31.120Z,0.60
2019-03-12T00:45:31.099Z,0.70
2019-03-12T00:46:31.104Z,0.90
2019-03-12T00:47:31.084Z,0.80
2019-03-12T00:48:31.074Z,0.70
2019-03-12T00:49:31.103Z,0.70
2019-03-12T00:50:31.042Z,0.80
2019-03-12T00:51:31.113Z,0.70
2019-03-12T00:52:31.021Z,0.80
2019-03-12T00:53:31.014Z,0.60
2019-03-12T00:54:31.002Z,0.80
2019-03-12T00:55:31.061Z,0.90
2019-03-12T00:56:30.998Z,0.60
2019-03-12T00:57:30.995Z,0.70
2019-03-12T00:58:30.962Z,0.70
2019-03-12T00:59:30.965Z,0.80
2019-03-12T01:00:30.932Z,0.80
2019-03-12T01:01:30.923Z,0.70
2019-03-12T01:02:30.941Z,0.60
2019-03-12T01:03:30.907Z,0.80
2019-03-12T01:04:30.895Z,0.70
2019-03-12T01:05:30.884Z,0.80
2019-03-12T01:06:30.886Z,0.70
2019-03-12T01:07:30.900Z,0.80
2019-03-12T01:08:30.895Z,0.90
2019-03-12T01:09:30.843Z,0.80
2019-03-12T01:10:30.831Z,0.70
2019-03-12T01:11:30.814Z,0.70
2019-03-12T01:12:30.839Z,0.70
2019-03-12T01:13:30.968Z,0.70
2019-03-12T01:14:30.800Z,0.80
2019-03-12T01:15:30.773Z,0.80
2019-03-12T01:16:30.759Z,0.60
2019-03-12T01:17:30.786Z,0.80
2019-03-12T01:18:30.743Z,0.70
2019-03-12T01:19:30.738Z,0.90
2019-03-12T01:20:30.719Z,0.90
2019-03-12T01:21:30.710Z,0.80
2019-03-12T01:22:30.717Z,0.80
2019-03-12T01:23:30.685Z,0.70
2019-03-12T01:24:30.676Z,0.60
2019-03-12T01:25:30.679Z,1.00
2019-03-12T01:26:30.668Z,0.70
2019-03-12T01:27:30.672Z,0.80
2019-03-12T01:28:30.702Z,0.70
2019-03-12T01:29:30.615Z,0.70
2019-03-12T01:30:30.606Z,0.70
2019-03-12T01:31:30.685Z,0.70
2019-03-12T01:32:30.667Z,1.00
2019-03-12T01:33:30.578Z,0.60
2019-03-12T01:34:30.563Z,0.60
2019-03-12T01:35:30.553Z,0.80
2019-03-12T01:36:30.550Z,0.90
2019-03-12T01:37:30.557Z,0.70
2019-03-12T01:38:30.537Z,0.60
2019-03-12T01:39:30.520Z,0.80
2019-03-12T01:40:30.554Z,0.90
2019-03-12T01:41:30.488Z,0.90
2019-03-12T01:42:30.503Z,0.80
2019-03-12T01:43:30.490Z,0.90
2019-03-12T01:44:30.460Z,0.60
2019-03-12T01:45:30.440Z,0.80
2019-03-12T01:46:30.443Z,0.80
2019-03-12T01:47:30.435Z,0.80
2019-03-12T01:48:30.439Z,0.70
2019-03-12T01:49:30.424Z,0.80
2019-03-12T01:50:30.408Z,0.60
2019-03-12T01:51:31.323Z,0.70
2019-03-12T01:52:30.397Z,0.70
2019-03-12T01:53:30.361Z,0.80
2019-03-12T01:54:30.346Z,0.70
2019-03-12T01:55:30.335Z,0.70
2019-03-12T01:56:30.361Z,0.80
2019-03-12T01:57:30.334Z,0.80
2019-03-12T01:58:30.390Z,0.90
2019-03-12T01:59:30.300Z,0.70
2019-03-12T02:00:30.283Z,0.60
2019-03-12T02:01:30.288Z,0.80
2019-03-12T02:02:30.286Z,0.80
2019-03-12T02:03:30.291Z,0.70
2019-03-12T02:04:30.244Z,0.70
2019-03-12T02:05:30.230Z,0.80
2019-03-12T02:06:30.306Z,0.60
2019-03-12T02:07:30.219Z,0.80
2019-03-12T02:08:30.254Z,0.80
2019-03-12T02:09:30.208Z,0.70
2019-03-12T02:10:30.190Z,0.80
2019-03-12T02:11:30.176Z,0.70
2019-03-12T02:12:30.172Z,0.80
2019-03-12T02:13:30.147Z,0.80
2019-03-12T02:14:30.135Z,0.50
2019-03-12T02:15:30.132Z,0.80
2019-03-12T02:16:30.124Z,0.70
2019-03-12T02:17:30.136Z,0.70
2019-03-12T02:18:30.093Z,0.90
2019-03-12T02:19:30.074Z,1.00
2019-03-12T02:20:30.167Z,0.60
2019-03-12T02:21:30.051Z,0.80
2019-03-12T02:22:30.065Z,1.10
2019-03-12T02:23:30.042Z,0.80
2019-03-12T02:24:30.028Z,0.80
2019-03-12T02:25:30.094Z,0.70
2019-03-12T02:26:30.008Z,0.70
2019-03-12T02:27:29.992Z,0.90
2019-03-12T02:28:29.983Z,0.80
2019-03-12T02:29:29.965Z,0.70
2019-03-12T02:30:29.965Z,0.80
2019-03-12T02:31:29.949Z,0.80
2019-03-12T02:32:29.949Z,0.70
2019-03-12T02:33:30.088Z,0.70
2019-03-12T02:34:29.912Z,0.70
2019-03-12T02:35:30.038Z,0.80
2019-03-12T02:36:29.915Z,0.80
2019-03-12T02:37:29.892Z,0.80
2019-03-12T02:38:29.930Z,0.70
2019-03-12T02:39:29.869Z,0.70
2019-03-12T02:40:29.851Z,1.00
2019-03-12T02:41:29.873Z,0.70
2019-03-12T02:42:29.830Z,0.70
2019-03-12T02:43:29.836Z,0.80
2019-03-12T02:44:29.834Z,0.70
2019-03-12T02:45:29.798Z,1.00
2019-03-12T02:46:29.851Z,0.90
2019-03-12T02:47:29.772Z,0.90
2019-03-12T02:48:29.925Z,0.80
2019-03-12T02:49:29.800Z,0.60
2019-03-12T02:50:29.788Z,0.90
2019-03-12T02:51:29.772Z,0.70
2019-03-12T02:52:29.714Z,0.70
2019-03-12T02:53:29.722Z,1.00
2019-03-12T02:54:29.708Z,0.70
2019-03-12T02:55:29.686Z,0.70
2019-03-12T02:56:29.690Z,0.70
2019-03-12T02:57:29.674Z,0.80
2019-03-12T02:58:29.669Z,0.60
2019-03-12T02:59:29.660Z,0.70
2019-03-12T03:00:29.636Z,0.80
2019-03-12T03:01:29.629Z,0.80
2019-03-12T03:02:29.608Z,0.80
2019-03-12T03:03:29.627Z,0.70
2019-03-12T03:04:29.598Z,0.80
2019-03-12T03:05:29.570Z,0.70
2019-03-12T03:06:29.583Z,0.70
2019-03-12T03:07:29.571Z,0.80
2019-03-12T03:08:29.563Z,0.70
2019-03-12T03:09:29.548Z,0.80
2019-03-12T03:10:29.531Z,0.90
2019-03-12T03:11:29.534Z,0.90
2019-03-12T03:12:29.512Z,0.80
2019-03-12T03:13:29.630Z,0.70
2019-03-12T03:14:29.483Z,0.70
2019-03-12T03:15:29.465Z,0.90
2019-03-12T03:16:29.464Z,0.90
2019-03-12T03:17:29.445Z,0.60
2019-03-12T03:18:29.547Z,0.80
2019-03-12T03:19:29.426Z,0.70
2019-03-12T03:20:29.421Z,0.80
2019-03-12T03:21:29.399Z,0.80
2019-03-12T03:22:29.383Z,0.80
2019-03-12T03:23:29.401Z,0.70
2019-03-12T03:24:29.382Z,0.60
2019-03-12T03:25:29.402Z,0.70
2019-03-12T03:26:29.345Z,0.70
2019-03-12T03:27:29.854Z,0.60
2019-03-12T03:28:29.360Z,0.80
2019-03-12T03:29:29.310Z,0.80
2019-03-12T03:30:29.334Z,0.60
2019-03-12T03:31:29.306Z,0.80
2019-03-12T03:32:29.290Z,0.60
2019-03-12T03:33:29.301Z,0.80
2019-03-12T03:34:29.312Z,0.80
2019-03-12T03:35:29.244Z,0.90
2019-03-12T03:36:29.260Z,0.70
2019-03-12T03:37:29.216Z,0.90
2019-03-12T03:38:29.342Z,0.70
2019-03-12T03:39:29.199Z,0.90
2019-03-12T03:40:29.196Z,0.70
2019-03-12T03:41:29.202Z,0.80
2019-03-12T03:42:29.193Z,0.50
2019-03-12T03:43:29.223Z,0.70
2019-03-12T03:44:29.157Z,0.70
2019-03-12T03:45:29.162Z,0.80
2019-03-12T03:46:29.137Z,0.50
2019-03-12T03:47:29.115Z,0.80
2019-03-12T03:48:29.140Z,0.60
2019-03-12T03:49:29.128Z,0.90
2019-03-12T03:50:29.112Z,0.80
2019-03-12T03:51:29.062Z,0.70
2019-03-12T03:52:29.161Z,0.90
2019-03-12T03:53:29.054Z,0.60
2019-03-12T03:54:29.034Z,0.80
2019-03-12T03:55:29.044Z,0.60
2019-03-12T03:56:29.029Z,0.80
2019-03-12T03:57:29.009Z,0.80
2019-03-12T03:58:29.083Z,0.60
2019-03-12T03:59:28.991Z,0.60
2019-03-12T04:00:28.976Z,0.70
2019-03-12T04:01:28.997Z,0.70
2019-03-12T04:02:28.965Z,0.70
2019-03-12T04:03:28.958Z,0.70
2019-03-12T04:04:28.945Z,0.80
2019-03-12T04:05:28.950Z,0.90
2019-03-12T04:06:28.919Z,0.60
2019-03-12T04:07:28.912Z,0.80
2019-03-12T04:08:28.910Z,0.80
2019-03-12T04:09:28.882Z,1.00
2019-03-12T04:10:28.866Z,0.70
2019-03-12T04:11:28.865Z,0.70
2019-03-12T04:12:28.857Z,0.60
2019-03-12T04:13:28.825Z,0.80
2019-03-12T04:14:28.825Z,0.60
2019-03-12T04:15:28.817Z,0.80
2019-03-12T04:16:28.798Z,0.80
2019-03-12T04:17:28.796Z,0.70
2019-03-12T04:18:28.791Z,0.70
2019-03-12T04:19:28.778Z,0.80
2019-03-12T04:20:28.802Z,0.70
2019-03-12T04:21:28.746Z,0.60
2019-03-12T04:22:28.813Z,0.80
2019-03-12T04:23:28.733Z,0.70
2019-03-12T04:24:28.727Z,0.50
2019-03-12T04:25:28.702Z,0.50
2019-03-12T04:26:28.694Z,0.70
2019-03-12T04:27:28.692Z,0.80
2019-03-12T04:28:28.690Z,0.60
2019-03-12T04:29:28.666Z,0.80
2019-03-12T04:30:28.645Z,0.90
2019-03-12T04:31:28.632Z,0.70
2019-03-12T04:32:28.618Z,0.60
2019-03-12T04:33:28.608Z,0.60
2019-03-12T04:34:28.613Z,0.70
2019-03-12T04:35:28.597Z,0.80
2019-03-12T04:36:28.584Z,0.90
2019-03-12T04:37:28.569Z,0.70
2019-03-12T04:38:28.562Z,0.70
2019-03-12T04:39:28.552Z,0.90
2019-03-12T04:40:28.557Z,0.80
2019-03-12T04:41:28.523Z,0.70
2019-03-12T04:42:28.516Z,0.80
2019-03-12T04:43:28.507Z,0.70
2019-03-12T04:44:28.507Z,0.80
2019-03-12T04:45:28.493Z,0.60
2019-03-12T04:46:28.475Z,0.60
2019-03-12T04:47:28.459Z,0.60
2019-03-12T04:48:28.447Z,0.70
2019-03-12T04:49:28.479Z,0.50
2019-03-12T04:50:28.432Z,0.70
2019-03-12T04:51:28.422Z,0.70
2019-03-12T04:52:28.409Z,0.60
2019-03-12T04:53:28.398Z,0.60
2019-03-12T04:54:28.417Z,0.70
2019-03-12T04:55:28.376Z,0.70
2019-03-12T04:56:28.388Z,0.80
2019-03-12T04:57:28.385Z,0.60
2019-03-12T04:58:28.362Z,0.70
2019-03-12T04:59:28.346Z,0.70
2019-03-12T05:00:28.334Z,0.70
2019-03-12T05:01:28.312Z,0.70
2019-03-12T05:02:28.355Z,0.70
2019-03-12T05:03:28.301Z,0.70
2019-03-12T05:04:28.303Z,0.60
2019-03-12T05:05:28.265Z,0.70
2019-03-12T05:06:28.261Z,0.70
2019-03-12T05:07:28.265Z,0.60
2019-03-12T05:08:28.247Z,0.60
2019-03-12T05:09:28.252Z,0.80
2019-03-12T05:10:28.213Z,0.70
2019-03-12T05:11:28.211Z,0.80
2019-03-12T05:12:30.599Z,0.80
2019-03-12T05:13:28.180Z,0.70
2019-03-12T05:14:28.199Z,0.70
2019-03-12T05:15:28.252Z,0.60
2019-03-12T05:16:28.173Z,0.80
2019-03-12T05:17:28.134Z,0.70
2019-03-12T05:18:28.129Z,0.60
2019-03-12T05:19:28.127Z,0.70
2019-03-12T05:20:28.279Z,0.80
2019-03-12T05:21:28.089Z,0.60
2019-03-12T05:22:28.119Z,0.80
2019-03-12T05:23:28.076Z,0.80
2019-03-12T05:24:28.078Z,0.80
2019-03-12T05:25:28.050Z,0.80
2019-03-12T05:26:28.034Z,0.70
2019-03-12T05:27:28.042Z,0.80
2019-03-12T05:28:28.018Z,0.80
2019-03-12T05:29:28.019Z,1.00
2019-03-12T05:30:28.011Z,0.80
2019-03-12T05:31:27.980Z,0.70
2019-03-12T05:32:27.973Z,0.80
2019-03-12T05:33:27.989Z,0.80
2019-03-12T05:34:27.948Z,0.90
2019-03-12T05:35:27.937Z,0.70
2019-03-12T05:36:27.936Z,0.70
2019-03-12T05:37:27.928Z,0.90
2019-03-12T05:38:27.911Z,0.60
2019-03-12T05:39:28.069Z,0.70
2019-03-12T05:40:27.881Z,0.60
2019-03-12T05:41:27.875Z,0.70
2019-03-12T05:42:27.861Z,0.90
2019-03-12T05:43:27.879Z,0.70
2019-03-12T05:44:27.842Z,0.60
2019-03-12T05:45:27.861Z,0.70
2019-03-12T05:46:27.835Z,0.70
2019-03-12T05:47:27.832Z,0.70
2019-03-12T05:48:27.812Z,0.70
2019-03-12T05:49:27.797Z,0.60
2019-03-12T05:50:27.805Z,0.70
2019-03-12T05:51:28.029Z,0.90
2019-03-12T05:52:27.753Z,0.70
2019-03-12T05:53:27.736Z,0.60
2019-03-12T05:54:27.750Z,0.80
2019-03-12T05:55:27.734Z,1.00
2019-03-12T05:56:28.722Z,0.70
2019-03-12T05:57:27.704Z,0.50
2019-03-12T05:58:27.692Z,0.90
2019-03-12T05:59:27.672Z,0.80
2019-03-12T06:00:27.803Z,0.60
2019-03-12T06:01:27.662Z,0.60
2019-03-12T06:02:27.659Z,0.70
2019-03-12T06:03:27.635Z,0.70
2019-03-12T06:04:27.624Z,0.70
2019-03-12T06:05:27.660Z,0.70
2019-03-12T06:06:27.617Z,0.80
2019-03-12T06:07:27.586Z,0.90
2019-03-12T06:08:27.590Z,0.60
2019-03-12T06:09:30.558Z,0.80
2019-03-12T06:10:27.610Z,0.70
2019-03-12T06:11:27.561Z,0.90
2019-03-12T06:12:27.547Z,0.80
2019-03-12T06:13:27.559Z,0.80
2019-03-12T06:14:27.516Z,0.60
2019-03-12T06:15:27.520Z,0.70
2019-03-12T06:16:27.499Z,0.60
2019-03-12T06:17:27.495Z,0.70
2019-03-12T06:18:27.482Z,0.60
2019-03-12T06:19:27.476Z,0.70
2019-03-12T06:20:27.463Z,0.60
2019-03-12T06:21:27.458Z,0.80
2019-03-12T06:22:27.438Z,0.80
2019-03-12T06:23:27.425Z,0.60
2019-03-12T06:24:27.410Z,0.80
2019-03-12T06:25:27.417Z,0.70
2019-03-12T06:26:27.416Z,0.60
2019-03-12T06:27:27.384Z,0.80
2019-03-12T06:28:27.361Z,0.80
2019-03-12T06:29:27.380Z,0.80
2019-03-12T06:30:27.359Z,0.90
2019-03-12T06:31:27.329Z,0.70
2019-03-12T06:32:27.318Z,0.70
2019-03-12T06:33:27.321Z,0.70
2019-03-12T06:34:27.313Z,0.60
2019-03-12T06:35:27.307Z,1.00
2019-03-12T06:36:27.291Z,0.60
2019-03-12T06:37:27.299Z,0.80
2019-03-12T06:38:27.259Z,0.60
2019-03-12T06:39:27.241Z,0.70
2019-03-12T06:40:27.256Z,0.70
2019-03-12T06:41:27.218Z,0.60
2019-03-12T06:42:27.211Z,0.70
2019-03-12T06:43:27.230Z,0.70
2019-03-12T06:44:27.190Z,0.70
2019-03-12T06:45:27.263Z,0.80
2019-03-12T06:46:27.225Z,0.70
2019-03-12T06:47:27.152Z,0.90
2019-03-12T06:48:27.167Z,0.80
2019-03-12T06:49:27.139Z,1.10
2019-03-12T06:50:27.141Z,1.00
2019-03-12T06:51:27.117Z,0.70
2019-03-12T06:52:27.102Z,0.80
2019-03-12T06:53:27.097Z,0.80
2019-03-12T06:54:27.074Z,0.90
2019-03-12T06:55:27.093Z,0.80
2019-03-12T06:56:27.061Z,0.90
2019-03-12T06:57:27.038Z,0.90
2019-03-12T06:58:27.064Z,0.90
2019-03-12T06:59:27.039Z,0.80
2019-03-12T07:00:27.020Z,0.80
2019-03-12T07:01:27.840Z,1.40
2019-03-12T07:02:26.991Z,0.80
2019-03-12T07:03:26.993Z,0.90
2019-03-12T07:04:26.982Z,1.10
2019-03-12T07:05:26.960Z,1.00
2019-03-12T07:06:26.950Z,1.10
2019-03-12T07:07:26.940Z,1.00
2019-03-12T07:08:26.928Z,1.00
2019-03-12T07:09:26.982Z,0.90
2019-03-12T07:10:26.969Z,1.10
2019-03-12T07:11:27.072Z,1.00
2019-03-12T07:12:26.873Z,0.80
2019-03-12T07:13:26.871Z,1.10
2019-03-12T07:14:26.851Z,1.10
2019-03-12T07:15:26.873Z,1.00
2019-03-12T07:16:26.847Z,1.00
2019-03-12T07:17:26.827Z,1.30
2019-03-12T07:18:26.825Z,1.00
2019-03-12T07:19:26.836Z,0.90
2019-03-12T07:20:26.903Z,0.90
2019-03-12T07:21:26.826Z,1.10
2019-03-12T07:22:26.776Z,1.20
2019-03-12T07:23:26.790Z,1.00
2019-03-12T07:24:26.740Z,1.00
2019-03-12T07:25:26.735Z,1.10
2019-03-12T07:26:26.755Z,1.10
2019-03-12T07:27:26.765Z,0.90
2019-03-12T07:28:26.696Z,0.90
2019-03-12T07:29:26.697Z,0.70
2019-03-12T07:30:26.704Z,1.40
2019-03-12T07:31:26.833Z,1.30
2019-03-12T07:32:26.677Z,1.00
2019-03-12T07:33:26.660Z,1.00
2019-03-12T07:34:36.117Z,0.90
2019-03-12T07:35:26.637Z,0.90
2019-03-12T07:36:26.660Z,1.00
2019-03-12T07:37:26.683Z,0.80
2019-03-12T07:38:26.618Z,1.30
2019-03-12T07:39:26.609Z,1.00
2019-03-12T07:40:26.571Z,1.00
2019-03-12T07:41:32.109Z,0.90
2019-03-12T07:42:26.603Z,0.90
2019-03-12T07:43:26.556Z,0.80
2019-03-12T07:44:26.532Z,1.10
2019-03-12T07:45:26.636Z,1.10
2019-03-12T07:46:26.524Z,1.20
2019-03-12T07:47:35.689Z,1.10
2019-03-12T07:48:26.485Z,0.90
2019-03-12T07:49:26.490Z,1.00
2019-03-12T07:50:26.477Z,0.90
2019-03-12T07:51:26.460Z,0.90
2019-03-12T07:52:26.469Z,1.00
2019-03-12T07:53:26.438Z,1.10
2019-03-12T07:54:26.473Z,0.90
2019-03-12T07:55:29.647Z,1.10
2019-03-12T07:56:26.505Z,0.90
2019-03-12T07:57:26.387Z,0.70
2019-03-12T07:58:35.850Z,0.90
2019-03-12T07:59:26.377Z,1.10
2019-03-12T08:00:26.361Z,0.90
2019-03-12T08:01:26.352Z,1.00
2019-03-12T08:02:26.346Z,1.10
2019-03-12T08:03:26.350Z,1.00
2019-03-12T08:04:26.380Z,1.10
2019-03-12T08:05:28.228Z,1.10
2019-03-12T08:06:26.318Z,1.00
2019-03-12T08:07:26.302Z,1.10
2019-03-12T08:08:26.362Z,1.00
2019-03-12T08:09:26.268Z,0.90
2019-03-12T08:10:26.563Z,1.10
2019-03-12T08:11:26.323Z,1.20
2019-03-12T08:12:26.248Z,1.20
2019-03-12T08:13:26.218Z,1.10
2019-03-12T08:14:27.078Z,0.80
2019-03-12T08:15:26.201Z,1.30
2019-03-12T08:16:26.208Z,1.00
2019-03-12T08:17:26.186Z,1.00
2019-03-12T08:18:26.178Z,1.10
2019-03-12T08:19:26.190Z,1.10
2019-03-12T08:20:26.128Z,1.00
2019-03-12T08:21:26.226Z,1.10
2019-03-12T08:22:26.115Z,1.00
2019-03-12T08:23:26.133Z,1.20
2019-03-12T08:24:26.087Z,1.30
2019-03-12T08:25:26.104Z,1.20
2019-03-12T08:26:26.091Z,1.00
2019-03-12T08:27:26.357Z,0.90
2019-03-12T08:28:26.067Z,1.20
2019-03-12T08:29:26.396Z,1.10
2019-03-12T08:30:26.046Z,1.10
2019-03-12T08:31:26.026Z,1.30
2019-03-12T08:32:26.014Z,1.00
2019-03-12T08:33:25.994Z,1.10
2019-03-12T08:34:25.983Z,1.40
2019-03-12T08:35:26.014Z,1.30
2019-03-12T08:36:28.522Z,1.10
2019-03-12T08:37:25.947Z,1.40
2019-03-12T08:38:25.958Z,1.10
2019-03-12T08:39:25.923Z,1.20
2019-03-12T08:40:25.948Z,1.60
2019-03-12T08:41:25.942Z,1.90
2019-03-12T08:42:25.943Z,1.30
2019-03-12T08:43:25.893Z,1.20
2019-03-12T08:44:26.452Z,1.50
2019-03-12T08:45:25.869Z,1.20
2019-03-12T08:46:25.854Z,1.60
2019-03-12T08:47:25.864Z,1.50
2019-03-12T08:48:25.852Z,1.70
2019-03-12T08:49:25.820Z,1.80
2019-03-12T08:50:25.828Z,1.30
2019-03-12T08:51:25.791Z,1.30
2019-03-12T08:52:25.813Z,1.30
2019-03-12T08:53:25.786Z,1.60
2019-03-12T08:54:25.798Z,1.20
2019-03-12T08:55:25.781Z,1.90
2019-03-12T08:56:25.756Z,1.50
2019-03-12T08:57:26.369Z,1.90
2019-03-12T08:58:26.381Z,1.60
2019-03-12T08:59:25.742Z,1.40
2019-03-12T09:00:25.719Z,1.60
2019-03-12T09:01:25.736Z,1.80
2019-03-12T09:02:25.685Z,2.70
2019-03-12T09:03:26.320Z,1.60
2019-03-12T09:04:25.949Z,1.70
2019-03-12T09:05:25.668Z,1.50
2019-03-12T09:06:25.661Z,1.50
2019-03-12T09:07:25.625Z,1.50
2019-03-12T09:08:34.888Z,1.50
2019-03-12T09:10:40.777Z,1.30
2019-03-12T09:11:40.938Z,1.80
2019-03-12T09:12:37.049Z,1.50
2019-03-12T09:13:35.054Z,1.60
2019-03-12T09:15:24.570Z,1.50
2019-03-12T09:17:43.689Z,1.60
2019-03-12T09:18:37.577Z,1.70
2019-03-12T09:19:25.523Z,1.70
2019-03-12T09:20:25.627Z,1.70
2019-03-12T09:21:25.581Z,1.80
2019-03-12T09:22:25.467Z,1.60
2019-03-12T09:23:26.987Z,1.70
2019-03-12T09:24:25.777Z,1.40
2019-03-12T09:25:25.451Z,1.60
2019-03-12T09:26:25.568Z,1.70
2019-03-12T09:28:27.546Z,1.50
2019-03-12T09:29:25.512Z,1.70
2019-03-12T09:30:25.478Z,1.90
2019-03-12T09:32:00.003Z,1.70
2019-03-12T09:32:25.466Z,1.30
2019-03-12T09:34:24.452Z,1.40
2019-03-12T09:35:26.049Z,1.70
2019-03-12T09:36:25.509Z,1.40
2019-03-12T09:37:27.499Z,1.60
2019-03-12T09:38:35.386Z,1.40
2019-03-12T09:39:25.314Z,1.60
2019-03-12T09:40:25.636Z,1.90
2019-03-12T09:41:25.450Z,1.60
2019-03-12T09:42:25.308Z,1.60
2019-03-12T09:43:39.583Z,1.50
2019-03-12T09:44:25.439Z,1.40
2019-03-12T09:45:25.793Z,1.80
2019-03-12T09:46:25.448Z,1.90
2019-03-12T09:47:25.740Z,1.80
2019-03-12T09:48:25.294Z,1.90
2019-03-12T09:49:27.624Z,1.80
2019-03-12T09:50:25.318Z,2.00
2019-03-12T09:51:25.781Z,2.20
2019-03-12T09:52:25.558Z,1.80
2019-03-12T09:53:25.195Z,2.10
2019-03-12T09:54:25.171Z,1.90
2019-03-12T09:55:25.147Z,1.60
2019-03-12T09:56:25.130Z,2.10
2019-03-12T09:57:25.181Z,1.90
2019-03-12T09:58:25.197Z,2.10
2019-03-12T09:59:25.145Z,1.90
2019-03-12T10:00:25.249Z,1.60
2019-03-12T10:01:25.072Z,1.60
2019-03-12T10:02:25.061Z,2.00
2019-03-12T10:03:25.019Z,1.80
2019-03-12T10:04:25.218Z,2.20
2019-03-12T10:05:25.028Z,1.70
2019-03-12T10:06:25.325Z,1.90
2019-03-12T10:07:26.549Z,1.80
2019-03-12T10:08:24.984Z,1.80
2019-03-12T10:09:24.968Z,1.50
2019-03-12T10:10:24.966Z,1.80
2019-03-12T10:11:25.934Z,1.90
2019-03-12T10:12:24.922Z,1.90
2019-03-12T10:13:24.917Z,1.70
2019-03-12T10:14:24.905Z,1.80
2019-03-12T10:15:24.886Z,2.00
2019-03-12T10:16:24.889Z,1.50
2019-03-12T10:17:24.887Z,1.80
2019-03-12T10:18:24.874Z,2.30
2019-03-12T10:19:24.881Z,1.90
2019-03-12T10:20:24.876Z,1.80
2019-03-12T10:21:24.859Z,1.60
2019-03-12T10:22:24.839Z,2.20
2019-03-12T10:23:24.829Z,2.20
2019-03-12T10:24:24.796Z,1.60
2019-03-12T10:25:24.781Z,1.50
2019-03-12T10:26:24.825Z,1.90
2019-03-12T10:27:24.759Z,1.90
2019-03-12T10:28:24.786Z,1.70
2019-03-12T10:29:24.830Z,1.60
2019-03-12T10:30:24.740Z,2.10
2019-03-12T10:31:24.748Z,2.00
2019-03-12T10:32:24.800Z,1.80
2019-03-12T10:33:24.727Z,2.00
2019-03-12T10:34:29.634Z,1.80
2019-03-12T10:35:24.693Z,1.90
2019-03-12T10:36:24.824Z,2.00
2019-03-12T10:37:24.659Z,1.70
2019-03-12T10:38:24.645Z,1.60
2019-03-12T10:39:24.728Z,2.00
2019-03-12T10:40:24.626Z,2.00
2019-03-12T10:41:24.625Z,2.60
2019-03-12T10:42:24.597Z,1.90
2019-03-12T10:43:24.587Z,1.70
2019-03-12T10:44:24.588Z,1.90
2019-03-12T10:45:24.590Z,1.80
2019-03-12T10:46:24.574Z,2.20
2019-03-12T10:47:25.620Z,1.80
2019-03-12T10:48:24.531Z,2.10
2019-03-12T10:49:36.698Z,1.90
2019-03-12T10:50:24.528Z,1.80
2019-03-12T10:51:24.512Z,1.90
2019-03-12T10:52:24.504Z,1.60
2019-03-12T10:53:24.467Z,2.10
2019-03-12T10:54:24.474Z,2.10
2019-03-12T10:55:24.610Z,2.00
2019-03-12T10:56:24.475Z,1.80
2019-03-12T10:57:24.513Z,2.00
2019-03-12T10:58:24.439Z,2.00
2019-03-12T10:59:25.412Z,1.70
2019-03-12T11:00:24.408Z,2.00
2019-03-12T11:01:24.404Z,1.60
2019-03-12T11:02:24.457Z,1.80
2019-03-12T11:03:24.375Z,2.00
2019-03-12T11:04:24.360Z,1.50
2019-03-12T11:05:24.353Z,1.70
2019-03-12T11:06:24.373Z,1.90
2019-03-12T11:07:24.347Z,1.40
2019-03-12T11:08:24.307Z,1.90
2019-03-12T11:09:24.302Z,1.80
2019-03-12T11:10:25.447Z,1.70
2019-03-12T11:11:24.310Z,1.90
2019-03-12T11:12:24.294Z,1.40
2019-03-12T11:13:24.290Z,1.90
2019-03-12T11:14:24.250Z,1.30
2019-03-12T11:15:24.226Z,1.80
2019-03-12T11:16:24.231Z,1.90
2019-03-12T11:17:24.236Z,1.90
2019-03-12T11:18:24.247Z,2.30
2019-03-12T11:19:24.229Z,1.60
2019-03-12T11:20:24.184Z,1.70
2019-03-12T11:21:24.180Z,2.20
2019-03-12T11:22:24.170Z,1.90
2019-03-12T11:23:24.165Z,1.60
2019-03-12T11:24:24.150Z,1.80
2019-03-12T11:25:27.732Z,1.80
2019-03-12T11:26:24.136Z,1.40
2019-03-12T11:27:24.102Z,1.70
2019-03-12T11:28:26.659Z,1.70
2019-03-12T11:29:24.095Z,2.00
2019-03-12T11:30:24.714Z,1.60
2019-03-12T11:31:24.095Z,1.60
2019-03-12T11:32:24.051Z,1.70
2019-03-12T11:33:24.045Z,1.70
2019-03-12T11:34:24.039Z,1.80
2019-03-12T11:35:24.032Z,1.40
2019-03-12T11:36:24.037Z,1.70
2019-03-12T11:37:23.997Z,1.80
2019-03-12T11:38:24.455Z,1.80
2019-03-12T11:39:23.998Z,1.50
2019-03-12T11:40:24.029Z,1.70
2019-03-12T11:41:23.945Z,1.70
2019-03-12T11:42:23.949Z,1.70
2019-03-12T11:43:24.043Z,1.60
2019-03-12T11:44:23.997Z,1.50
2019-03-12T11:45:35.776Z,1.80
2019-03-12T11:46:23.909Z,1.40
2019-03-12T11:47:23.966Z,1.80
2019-03-12T11:48:23.931Z,1.40
2019-03-12T11:49:23.887Z,1.60
2019-03-12T11:50:23.938Z,1.60
2019-03-12T11:51:23.857Z,1.80
2019-03-12T11:52:23.899Z,1.40
2019-03-12T11:53:23.876Z,1.40
2019-03-12T11:54:23.837Z,1.80
2019-03-12T11:55:24.232Z,1.40
2019-03-12T11:56:23.924Z,1.40
2019-03-12T11:57:24.052Z,1.70
2019-03-12T11:58:23.896Z,2.10
2019-03-12T11:59:23.781Z,2.30
2019-03-12T12:00:23.772Z,1.60
2019-03-12T12:01:23.739Z,1.60
2019-03-12T12:02:23.889Z,1.50
2019-03-12T12:03:23.735Z,1.60
2019-03-12T12:04:23.726Z,1.90
2019-03-12T12:05:23.722Z,1.90
2019-03-12T12:06:23.719Z,1.40
2019-03-12T12:07:23.715Z,1.60
2019-03-12T12:08:24.675Z,1.40
2019-03-12T12:09:23.654Z,1.60
2019-03-12T12:10:23.670Z,1.90
2019-03-12T12:11:23.647Z,1.80
2019-03-12T12:12:23.625Z,1.80
2019-03-12T12:13:23.639Z,1.20
2019-03-12T12:14:23.600Z,1.80
2019-03-12T12:15:23.582Z,1.90
2019-03-12T12:16:23.582Z,1.50
2019-03-12T12:17:23.603Z,1.60
2019-03-12T12:18:23.582Z,1.90
2019-03-12T12:19:23.542Z,1.50
2019-03-12T12:20:29.655Z,2.00
2019-03-12T12:21:23.527Z,1.80
2019-03-12T12:22:23.522Z,1.80
2019-03-12T12:23:23.525Z,1.80
2019-03-12T12:24:26.532Z,2.00
2019-03-12T12:25:23.511Z,2.20
2019-03-12T12:26:23.470Z,2.80
2019-03-12T12:27:23.465Z,1.90
2019-03-12T12:28:23.462Z,2.00
2019-03-12T12:29:23.452Z,2.20
2019-03-12T12:30:23.456Z,1.80
2019-03-12T12:31:23.432Z,1.90
2019-03-12T12:32:23.425Z,1.70
2019-03-12T12:33:23.445Z,2.00
2019-03-12T12:34:23.384Z,2.10
2019-03-12T12:35:23.385Z,2.30
2019-03-12T12:36:23.365Z,2.20
2019-03-12T12:37:23.387Z,1.70
2019-03-12T12:38:23.365Z,2.50
2019-03-12T12:39:23.353Z,1.90
2019-03-12T12:40:23.351Z,2.00
2019-03-12T12:41:23.306Z,2.00
2019-03-12T12:42:23.323Z,1.80
2019-03-12T12:43:23.426Z,2.00
2019-03-12T12:44:23.296Z,1.80
2019-03-12T12:45:23.377Z,2.00
2019-03-12T12:46:23.249Z,2.50
2019-03-12T12:47:23.344Z,1.90
2019-03-12T12:48:23.238Z,1.50
2019-03-12T12:49:23.281Z,2.20
2019-03-12T12:50:23.800Z,2.00
2019-03-12T12:51:23.244Z,2.00
2019-03-12T12:52:23.207Z,1.70
2019-03-12T12:53:23.174Z,1.70
2019-03-12T12:54:23.183Z,1.90
2019-03-12T12:55:23.174Z,2.30
2019-03-12T12:56:23.151Z,1.60
2019-03-12T12:57:23.149Z,1.90
2019-03-12T12:58:23.142Z,1.80
2019-03-12T12:59:23.125Z,2.20
2019-03-12T13:00:23.160Z,1.80
2019-03-12T13:01:23.193Z,1.60
2019-03-12T13:02:23.130Z,1.80
2019-03-12T13:03:23.080Z,1.80
2019-03-12T13:04:23.085Z,1.60
2019-03-12T13:05:23.048Z,1.70
2019-03-12T13:06:23.088Z,1.60
2019-03-12T13:07:23.041Z,1.80
2019-03-12T13:08:23.054Z,1.50
2019-03-12T13:09:23.034Z,1.90
2019-03-12T13:10:23.062Z,1.30
2019-03-12T13:11:23.013Z,1.70
2019-03-12T13:12:22.977Z,1.50
2019-03-12T13:13:22.970Z,2.20
2019-03-12T13:14:22.965Z,1.80
2019-03-12T13:15:23.677Z,1.80
2019-03-12T13:16:25.406Z,1.70
2019-03-12T13:17:22.926Z,1.90
2019-03-12T13:18:22.947Z,1.70
2019-03-12T13:19:22.905Z,2.00
2019-03-12T13:20:22.924Z,2.00
2019-03-12T13:21:22.881Z,1.60
2019-03-12T13:22:22.898Z,1.50
2019-03-12T13:23:22.880Z,1.70